Steelton, PA

12:52 PM EST on November 26, 2014 (GMT -0500)
Muir Army Air Field | Change Station
CLOSE
Current Station
Airport
Location: Fort Indiantown Gap,
Elevation: 489 ft
Nearby Weather Stations
Active Advisory: Winter Storm Warning Active Notice: Public Information Statement

Elev 489 ft 40.43 °N, 76.57 °W | Updated 5 minutes ago

Snow
Snow
32 °F
Feels Like 28 °F
N
5
Wind Variable Wind from NE

Today
High -- | Low -- °F
--% Chance of Precip.
Yesterday
High -- | Low -- °F
Precip. -- in
7:05 AM 4:43 PM
Waxing Crescent, 21% visible
Pressure 29.99 in
Visibility 3.0 miles
Clouds Scattered Clouds 700 ft
Overcast 1200 ft
Windchill 28 °F
Dew Point 32 °F
Humidity 100%
Rainfall 0.52 in
Snow Depth Not available.
UV 1 out of 12
Pollen .10 out of 12
Air Quality Not available.
Flu Activity Not available.
SPECI KMUI 261747Z AUTO 04004KT 3SM -SN BR SCT007 OVC012 00/00 A2999 RMK AO2 $

More Conditions Fewer Conditions

Pressure 29.99 in
Visibility 3.0 miles
Clouds Scattered Clouds 700 ft
Overcast 1200 ft
Windchill 28 °F
Dew Point 32 °F
Humidity 100%
Rainfall 0.52 in
Snow Depth Not available.
UV 1 out of 12
Pollen .10 out of 12
Air Quality Not available.
Flu Activity Not available.
SPECI KMUI 261747Z AUTO 04004KT 3SM -SN BR SCT007 OVC012 00/00 A2999 RMK AO2 $

More Conditions Fewer Conditions

Nowcast | as of 12:15 PM EST on November 26, 2014

Moderate to heavy snow will continue into early afternoon. Thunder may accompany the heavier snow-bands...producing bursts of very heavy snow with near zero visibility. Roads will be slick and possibly snow covered...so use extra caution if traveling today.

×

10-Day Weather Forecast

Almanac

Astronomy

Nov. 26, 2014 Rise Set
Actual Time
Civil Twilight
Nautical Twilight
Astronomical Twilight
Moon
Length of Visible Light
Length of Day
Tomorrow will be .
, % of the Moon is Illuminated

Today's Extremes

State Highs State Lows

Community

WunderPhotos

Upload Photos

1,773,808 photos uploaded!

WunderBlogs® & News

Nearby

Air Quality

  Air Quality AQ Index Pollutant
Not available.

Snow Depth

Station Depth Elevation

Earthquake Activity

City Distance Mag. Time & Date
Minimum magnitude displayed is 2.5.

Coastal Water Temperatures

Place Temperature

Nearby Weather Stations